Time;durP1;ratioP1;P1;durP2;ratioP2;P2;SDS_P1;SDS_P2;PMS_P1;PMS_P2;Temp;Humidity;BMP_temperature;BMP_pressure;BME280_temperature;BME280_humidity;BME280_pressure;Samples;Min_cycle;Max_cycle;Signal;HPM_P1;HPM_P2
2022/12/27 00:00:29;;;;;;;1.55;0.63;;;17.10;57.90;;;;;;5062678;28;45267;-72
2022/12/27 00:02:56;;;;;;;1.65;0.80;;;17.10;58.10;;;;;;5061177;28;45390;-72
2022/12/27 00:05:23;;;;;;;4.22;1.08;;;17.10;57.80;;;;;;5067730;28;45396;-71
2022/12/27 00:07:49;;;;;;;2.35;0.95;;;17.10;57.90;;;;;;5064359;28;46409;-71
2022/12/27 00:10:16;;;;;;;2.53;0.90;;;17.10;58.00;;;;;;5062163;28;45298;-72
2022/12/27 00:12:43;;;;;;;2.13;0.90;;;17.20;58.10;;;;;;5062348;28;45339;-72
2022/12/27 00:15:10;;;;;;;1.45;0.85;;;17.20;58.20;;;;;;5058277;28;45568;-71
2022/12/27 00:17:38;;;;;;;2.25;0.70;;;17.20;57.90;;;;;;5054487;28;46578;-71
2022/12/27 00:20:06;;;;;;;3.88;0.90;;;17.20;58.10;;;;;;5068422;28;45383;-72
2022/12/27 00:22:32;;;;;;;1.80;0.90;;;17.20;58.20;;;;;;5057809;28;45467;-71
2022/12/27 00:25:00;;;;;;;1.52;0.70;;;17.10;58.00;;;;;;5061229;28;45798;-71
2022/12/27 00:27:27;;;;;;;3.30;0.88;;;17.10;57.90;;;;;;5064570;28;48645;-71
2022/12/27 00:29:54;;;;;;;3.13;0.80;;;17.10;58.30;;;;;;5070401;28;45399;-71
2022/12/27 00:32:20;;;;;;;1.77;0.68;;;17.10;58.20;;;;;;5059420;28;45431;-71
2022/12/27 00:34:49;;;;;;;3.15;1.13;;;17.00;58.30;;;;;;5061657;28;45602;-72
2022/12/27 00:37:15;;;;;;;3.35;0.90;;;17.10;58.40;;;;;;5063411;28;46398;-71
2022/12/27 00:39:42;;;;;;;2.40;0.80;;;17.10;58.50;;;;;;5062607;28;45467;-71
2022/12/27 00:42:09;;;;;;;3.05;0.90;;;17.10;58.40;;;;;;5065586;28;45411;-72
2022/12/27 00:44:36;;;;;;;1.85;0.70;;;17.00;58.30;;;;;;5066102;27;45391;-71
2022/12/27 00:47:02;;;;;;;3.28;0.77;;;17.00;58.40;;;;;;5060410;28;48072;-71
2022/12/27 00:49:29;;;;;;;2.25;0.90;;;17.10;58.40;;;;;;5064539;27;45442;-71
2022/12/27 00:51:57;;;;;;;3.25;0.80;;;17.00;58.30;;;;;;5065451;27;45493;-72
2022/12/27 00:54:24;;;;;;;2.80;0.90;;;17.10;58.50;;;;;;5074173;28;45396;-71
2022/12/27 00:56:51;;;;;;;2.30;0.70;;;17.10;58.60;;;;;;5062511;28;47116;-72
2022/12/27 00:59:18;;;;;;;1.20;0.60;;;17.20;58.90;;;;;;5072382;27;45229;-71
2022/12/27 01:01:44;;;;;;;3.30;0.93;;;17.20;59.10;;;;;;5062762;28;45413;-71
2022/12/27 01:04:12;;;;;;;1.67;0.77;;;17.10;58.50;;;;;;5062265;28;45329;-71
2022/12/27 01:06:39;;;;;;;2.63;0.77;;;17.20;58.80;;;;;;5059806;28;45274;-71
2022/12/27 01:09:08;;;;;;;1.83;0.50;;;17.20;58.70;;;;;;5072207;28;45418;-71
2022/12/27 01:11:35;;;;;;;1.85;0.77;;;17.20;58.70;;;;;;5080949;27;45644;-71
2022/12/27 01:14:03;;;;;;;2.10;0.68;;;17.20;58.30;;;;;;5071086;27;45409;-72
2022/12/27 01:16:31;;;;;;;2.03;0.70;;;17.10;58.10;;;;;;5057439;28;45465;-71
2022/12/27 01:18:59;;;;;;;3.70;0.82;;;17.10;58.00;;;;;;5060434;28;45245;-71
2022/12/27 01:21:29;;;;;;;1.55;0.75;;;17.20;58.30;;;;;;5055083;28;45642;-71
2022/12/27 01:23:56;;;;;;;1.48;0.60;;;17.10;58.00;;;;;;5052146;27;45312;-71
2022/12/27 01:26:24;;;;;;;1.65;0.60;;;17.10;58.30;;;;;;5060244;28;47512;-72
2022/12/27 01:28:52;;;;;;;1.33;0.68;;;17.10;58.20;;;;;;5074634;27;45432;-71
2022/12/27 01:31:22;;;;;;;2.08;0.63;;;17.10;58.40;;;;;;5072146;27;45489;-71
2022/12/27 01:33:48;;;;;;;3.25;0.85;;;17.10;58.40;;;;;;5063913;28;45202;-71
2022/12/27 01:36:17;;;;;;;3.42;0.95;;;17.10;58.50;;;;;;5064092;28;46022;-71
2022/12/27 01:38:46;;;;;;;1.63;0.93;;;17.10;58.70;;;;;;5063599;28;45393;-71
2022/12/27 01:44:00;;;;;;;1.20;0.60;;;17.10;58.80;;;;;;5063780;28;45232;-71
2022/12/27 01:46:47;;;;;;;2.13;0.70;;;17.10;58.50;;;;;;5063425;28;45251;-71
2022/12/27 01:49:14;;;;;;;2.55;0.80;;;17.20;59.00;;;;;;5054732;28;45409;-71
2022/12/27 01:51:41;;;;;;;1.70;0.65;;;17.10;59.00;;;;;;5063317;28;45316;-72
2022/12/27 01:54:08;;;;;;;2.72;0.80;;;17.10;58.90;;;;;;5063298;28;45455;-71
2022/12/27 01:56:35;;;;;;;2.03;0.77;;;17.20;58.90;;;;;;5065532;28;47505;-71
2022/12/27 01:59:07;;;;;;;2.95;0.80;;;17.20;59.00;;;;;;5067220;28;45380;-71
2022/12/27 02:04:59;;;;;;;1.20;0.70;;;17.20;58.70;;;;;;5064955;28;45353;-71
2022/12/27 02:07:33;;;;;;;3.10;0.70;;;17.10;58.40;;;;;;5066413;28;47502;-71
2022/12/27 02:10:02;;;;;;;2.45;0.90;;;17.10;58.30;;;;;;5067799;28;45463;-71
2022/12/27 02:12:29;;;;;;;2.00;0.60;;;17.10;58.50;;;;;;5068830;28;45359;-72
2022/12/27 02:15:00;;;;;;;0.82;0.50;;;17.10;58.50;;;;;;5073173;27;45397;-72
2022/12/27 02:17:30;;;;;;;1.48;0.57;;;17.10;58.60;;;;;;5075783;28;45315;-71
2022/12/27 02:20:04;;;;;;;2.83;0.70;;;17.10;58.60;;;;;;5069083;28;45355;-71
2022/12/27 02:26:12;;;;;;;2.80;0.90;;;17.00;58.60;;;;;;5049690;28;45469;-71
2022/12/27 02:28:53;;;;;;;1.73;0.70;;;17.10;58.70;;;;;;5065291;28;46839;-71
2022/12/27 02:31:28;;;;;;;1.52;0.43;;;17.10;58.80;;;;;;5056359;28;45302;-71
2022/12/27 02:33:57;;;;;;;1.33;0.57;;;17.10;58.90;;;;;;5071408;28;45402;-72
2022/12/27 02:36:27;;;;;;;2.22;0.75;;;17.10;59.00;;;;;;5077143;28;45585;-71
2022/12/27 02:38:57;;;;;;;1.38;0.55;;;17.10;58.90;;;;;;5079172;28;45291;-72
2022/12/27 02:55:28;;;;;;;2.78;0.85;;;17.20;58.80;;;;;;5052036;28;45493;-71
2022/12/27 02:58:12;;;;;;;1.25;0.60;;;17.20;58.40;;;;;;5064817;28;45570;-71
2022/12/27 03:03:47;;;;;;;1.67;0.70;;;17.10;58.50;;;;;;5045784;28;45327;-71
2022/12/27 03:06:40;;;;;;;3.28;0.68;;;17.10;58.50;;;;;;5056398;28;45532;-71
2022/12/27 03:17:40;;;;;;;1.77;0.60;;;17.00;58.60;;;;;;5066197;28;45443;-71
2022/12/27 03:25:49;;;;;;;1.23;0.52;;;17.10;58.80;;;;;;5072285;28;45367;-73
2022/12/27 03:34:30;;;;;;;2.25;0.70;;;17.10;59.00;;;;;;5083263;28;45322;-71
2022/12/27 03:39:43;;;;;;;2.50;0.60;;;17.20;58.90;;;;;;5071571;28;45252;-71
2022/12/27 03:44:58;;;;;;;2.80;1.02;;;17.20;58.90;;;;;;5042463;28;45458;-71
2022/12/27 03:47:34;;;;;;;2.88;0.75;;;17.10;58.20;;;;;;5045543;28;45346;-71
2022/12/27 03:50:07;;;;;;;2.85;0.85;;;17.10;58.40;;;;;;5042880;28;45233;-71
2022/12/27 03:52:40;;;;;;;2.17;0.75;;;17.10;58.50;;;;;;5044928;28;45258;-71
2022/12/27 03:55:08;;;;;;;1.15;0.60;;;17.10;58.50;;;;;;5053077;28;45738;-71
2022/12/27 04:01:35;;;;;;;4.32;1.00;;;17.00;58.50;;;;;;5062951;28;45263;-71
2022/12/27 04:04:01;;;;;;;1.52;0.50;;;17.00;58.50;;;;;;5050235;28;45242;-71
2022/12/27 04:06:29;;;;;;;1.58;0.82;;;17.10;58.90;;;;;;5064315;28;46622;-71
2022/12/27 04:36:53;;;;;;;1.35;0.70;;;17.00;56.90;;;;;;5063643;28;45623;-71
2022/12/27 04:39:21;;;;;;;3.67;0.80;;;17.00;56.50;;;;;;5064527;28;46088;-72
2022/12/27 04:55:35;;;;;;;1.52;0.55;;;16.90;55.70;;;;;;5043401;28;45289;-72
2022/12/27 04:58:02;;;;;;;3.40;0.88;;;16.90;55.90;;;;;;5057994;28;45441;-71
2022/12/27 05:03:18;;;;;;;2.53;1.05;;;16.90;55.80;;;;;;5059075;28;45434;-72
2022/12/27 05:05:47;;;;;;;2.92;0.73;;;16.90;55.80;;;;;;5059252;28;45419;-71
2022/12/27 05:13:59;;;;;;;2.70;0.82;;;16.90;55.60;;;;;;5059739;28;45418;-72
2022/12/27 05:16:26;;;;;;;4.93;1.20;;;16.90;56.30;;;;;;5063142;28;45293;-71
2022/12/27 05:18:53;;;;;;;3.40;0.98;;;16.90;56.10;;;;;;5062896;28;45424;-71
2022/12/27 05:21:20;;;;;;;2.13;0.68;;;17.00;56.10;;;;;;5061479;28;45534;-74
2022/12/27 05:26:41;;;;;;;2.30;0.73;;;16.90;56.10;;;;;;5028266;28;45543;-72
2022/12/27 05:29:12;;;;;;;1.83;0.70;;;17.00;55.80;;;;;;5057725;28;45256;-71
2022/12/27 05:31:39;;;;;;;3.45;1.00;;;17.00;55.90;;;;;;5061898;28;45465;-72
2022/12/27 05:34:06;;;;;;;4.38;1.08;;;16.90;55.50;;;;;;5062738;28;45444;-71
2022/12/27 05:36:33;;;;;;;2.10;0.77;;;16.90;55.40;;;;;;5064153;28;45342;-71
2022/12/27 05:39:00;;;;;;;3.35;0.70;;;16.90;55.60;;;;;;5054246;28;45481;-72
2022/12/27 05:41:27;;;;;;;3.15;0.80;;;16.90;55.50;;;;;;5043208;28;46199;-72
2022/12/27 05:43:55;;;;;;;2.25;0.98;;;16.80;55.70;;;;;;5045507;28;45854;-72
2022/12/27 05:46:22;;;;;;;2.22;0.73;;;16.90;55.90;;;;;;5063849;28;45399;-72
2022/12/27 05:48:49;;;;;;;0.90;0.57;;;16.90;56.00;;;;;;5064178;28;45299;-71
2022/12/27 05:51:23;;;;;;;1.55;0.90;;;16.90;56.10;;;;;;5057421;28;46372;-71
2022/12/27 05:53:50;;;;;;;2.70;0.70;;;16.90;56.00;;;;;;5076480;27;45991;-72
2022/12/27 05:56:18;;;;;;;1.90;0.65;;;16.90;56.20;;;;;;5079575;28;45309;-71
2022/12/27 05:58:46;;;;;;;2.22;0.80;;;16.90;56.30;;;;;;5074587;27;45401;-71
2022/12/27 06:01:16;;;;;;;2.60;1.08;;;16.90;56.60;;;;;;5074587;27;45377;-72
2022/12/27 06:03:43;;;;;;;2.05;0.77;;;17.00;56.20;;;;;;5062422;28;45417;-72
2022/12/27 06:06:10;;;;;;;2.17;0.65;;;16.90;56.10;;;;;;5062883;28;45339;-71
2022/12/27 06:08:37;;;;;;;3.55;0.77;;;16.90;56.20;;;;;;5053705;28;45299;-71
2022/12/27 06:11:07;;;;;;;1.58;0.80;;;16.90;56.20;;;;;;5058475;28;46339;-72
2022/12/27 06:13:34;;;;;;;2.47;0.82;;;17.00;56.10;;;;;;5057926;28;45672;-72
2022/12/27 06:16:06;;;;;;;4.10;0.90;;;16.90;55.80;;;;;;5063279;28;45308;-72
2022/12/27 06:18:36;;;;;;;2.72;0.75;;;16.90;55.40;;;;;;5053052;28;45272;-71
2022/12/27 06:21:06;;;;;;;3.00;0.85;;;16.90;55.10;;;;;;5076382;27;46072;-71
2022/12/27 06:23:33;;;;;;;2.03;0.77;;;16.90;55.00;;;;;;5061516;28;45301;-72
2022/12/27 06:26:03;;;;;;;2.25;0.85;;;16.80;54.80;;;;;;5060135;28;45323;-72
2022/12/27 06:28:30;;;;;;;4.32;0.88;;;16.80;54.80;;;;;;5060185;28;45416;-71
2022/12/27 06:30:58;;;;;;;2.38;0.98;;;16.80;54.80;;;;;;5061669;28;46272;-72
2022/12/27 06:33:25;;;;;;;3.60;0.98;;;16.80;54.80;;;;;;5061557;28;45284;-72
2022/12/27 06:35:54;;;;;;;2.20;0.85;;;16.80;54.90;;;;;;5062682;28;45438;-72
2022/12/27 06:38:21;;;;;;;1.85;0.90;;;16.80;54.60;;;;;;5062641;28;45240;-71
2022/12/27 06:40:47;;;;;;;1.60;0.90;;;16.80;54.70;;;;;;5062862;28;45206;-71
2022/12/27 06:43:14;;;;;;;1.67;0.70;;;16.80;54.50;;;;;;5065621;28;45336;-72
2022/12/27 06:45:41;;;;;;;2.92;0.90;;;16.80;54.60;;;;;;5066350;28;45333;-72
2022/12/27 06:48:08;;;;;;;1.45;0.73;;;16.80;54.90;;;;;;5065881;28;45296;-72
2022/12/27 06:50:36;;;;;;;3.92;0.80;;;16.80;54.80;;;;;;5066052;28;45520;-71
2022/12/27 06:53:04;;;;;;;1.90;0.80;;;16.80;54.70;;;;;;5065911;28;45689;-73
2022/12/27 06:55:31;;;;;;;2.03;0.82;;;16.90;54.80;;;;;;5065936;28;45274;-71
2022/12/27 06:57:58;;;;;;;2.58;0.77;;;16.90;54.80;;;;;;5066130;28;45427;-72
2022/12/27 07:00:26;;;;;;;3.60;0.82;;;16.90;54.80;;;;;;5065930;28;46648;-72
2022/12/27 07:02:53;;;;;;;4.57;0.80;;;16.90;54.80;;;;;;5065035;28;45350;-71
2022/12/27 07:05:20;;;;;;;3.97;1.00;;;16.90;54.70;;;;;;5045588;28;45340;-71
2022/12/27 07:07:47;;;;;;;4.13;1.10;;;16.90;54.20;;;;;;5042879;28;45330;-71
2022/12/27 07:10:15;;;;;;;2.35;0.90;;;16.90;54.00;;;;;;5045655;28;46644;-71
2022/12/27 07:12:42;;;;;;;2.90;1.00;;;16.80;53.70;;;;;;5053147;28;45268;-72
2022/12/27 07:15:09;;;;;;;2.80;0.70;;;16.80;53.80;;;;;;5064650;28;47150;-72
2022/12/27 07:17:38;;;;;;;3.40;0.95;;;16.80;54.00;;;;;;5067399;28;45558;-71
2022/12/27 07:20:06;;;;;;;2.15;0.63;;;16.80;53.70;;;;;;5067048;27;45684;-72
2022/12/27 07:22:32;;;;;;;1.85;0.88;;;16.80;53.70;;;;;;5065532;27;45439;-71
2022/12/27 07:24:59;;;;;;;2.25;1.10;;;16.80;53.70;;;;;;5063234;28;45545;-72
2022/12/27 07:27:27;;;;;;;2.25;1.20;;;16.80;53.60;;;;;;5068845;28;45621;-71
2022/12/27 07:29:54;;;;;;;3.17;1.13;;;16.80;53.60;;;;;;5073749;27;48737;-71
2022/12/27 07:32:21;;;;;;;2.58;1.00;;;16.80;53.70;;;;;;5049432;28;45703;-71
2022/12/27 07:34:48;;;;;;;3.60;1.10;;;16.70;53.60;;;;;;5047761;28;45534;-71
2022/12/27 07:37:16;;;;;;;3.78;1.40;;;16.80;53.80;;;;;;5056070;28;45669;-71
2022/12/27 07:39:43;;;;;;;2.10;0.85;;;16.80;54.20;;;;;;5063637;28;48429;-72
2022/12/27 07:42:10;;;;;;;2.78;1.02;;;16.80;53.80;;;;;;5066746;28;46193;-70
2022/12/27 07:44:38;;;;;;;4.90;1.33;;;16.80;55.40;;;;;;5070479;28;45632;-70
2022/12/27 07:47:05;;;;;;;2.50;0.77;;;16.90;54.80;;;;;;5064398;27;45407;-70
2022/12/27 07:49:32;;;;;;;3.70;1.17;;;16.90;54.40;;;;;;5062602;28;48433;-71
2022/12/27 07:51:59;;;;;;;1.77;0.75;;;16.90;54.40;;;;;;5067624;28;46033;-70
2022/12/27 07:54:26;;;;;;;2.80;1.10;;;16.90;54.80;;;;;;5058436;27;45537;-70
2022/12/27 07:56:52;;;;;;;2.70;0.93;;;16.90;55.10;;;;;;5052419;28;45411;-70
2022/12/27 07:59:21;;;;;;;2.50;0.93;;;16.90;54.00;;;;;;5062757;28;46219;-71
2022/12/27 08:02:04;;;;;;;3.15;0.70;;;16.90;53.70;;;;;;5062722;28;45392;-71
2022/12/27 08:04:34;;;;;;;2.33;0.80;;;16.80;53.60;;;;;;5064329;28;45421;-70
2022/12/27 08:07:04;;;;;;;2.05;0.77;;;16.80;54.10;;;;;;5084164;27;45433;-70
2022/12/27 08:09:33;;;;;;;3.40;0.80;;;16.80;53.10;;;;;;5085916;27;47346;-70
2022/12/27 08:12:00;;;;;;;3.90;1.05;;;16.80;53.50;;;;;;5076572;27;45291;-71
2022/12/27 08:14:27;;;;;;;1.42;0.80;;;16.70;53.10;;;;;;5059081;28;45756;-71
2022/12/27 08:16:56;;;;;;;4.28;1.00;;;16.80;53.30;;;;;;5070858;28;45315;-70
2022/12/27 08:19:23;;;;;;;3.67;1.00;;;16.70;54.60;;;;;;5078844;28;47516;-71
2022/12/27 08:21:49;;;;;;;1.15;0.60;;;16.70;53.20;;;;;;5062611;27;45405;-70
2022/12/27 08:24:16;;;;;;;2.40;0.60;;;16.70;53.40;;;;;;5068965;28;45398;-71
2022/12/27 08:26:43;;;;;;;2.15;0.93;;;16.70;53.40;;;;;;5071869;27;45354;-70
2022/12/27 08:29:10;;;;;;;3.35;1.08;;;16.70;53.60;;;;;;5054950;27;48672;-71
2022/12/27 08:31:37;;;;;;;2.67;0.82;;;16.80;53.70;;;;;;5059290;28;45354;-71
2022/12/27 08:34:05;;;;;;;2.80;0.80;;;16.80;54.00;;;;;;5062209;28;45657;-71
2022/12/27 08:36:32;;;;;;;1.02;0.40;;;16.90;54.40;;;;;;5055882;28;45489;-71
2022/12/27 08:38:58;;;;;;;1.38;0.60;;;16.90;54.50;;;;;;5050484;28;47832;-71
2022/12/27 08:41:25;;;;;;;3.72;0.90;;;16.90;54.80;;;;;;5058386;28;45241;-70
2022/12/27 08:43:52;;;;;;;1.30;0.90;;;16.90;54.90;;;;;;5073564;28;45331;-71
2022/12/27 08:46:19;;;;;;;2.53;0.80;;;16.90;55.00;;;;;;5072444;28;45565;-68
2022/12/27 08:48:48;;;;;;;25.25;3.72;;;16.90;55.10;;;;;;5072059;28;46395;-73
2022/12/27 08:51:17;;;;;;;17.17;2.08;;;17.00;58.10;;;;;;5062611;28;45253;-71
2022/12/27 08:53:44;;;;;;;6.35;1.73;;;17.20;59.20;;;;;;5058045;28;45401;-72
2022/12/27 08:56:11;;;;;;;2.83;0.90;;;17.30;59.20;;;;;;5072093;28;45425;-74
2022/12/27 08:58:37;;;;;;;4.45;1.02;;;17.30;59.10;;;;;;5069650;27;46860;-72
2022/12/27 09:01:06;;;;;;;3.83;0.80;;;17.30;59.10;;;;;;5063507;28;45504;-72
2022/12/27 09:03:32;;;;;;;4.03;1.10;;;17.30;59.20;;;;;;5077172;27;45324;-73
2022/12/27 09:06:08;;;;;;;5.65;0.80;;;17.40;59.10;;;;;;5061419;28;45329;-73
2022/12/27 09:08:37;;;;;;;5.38;1.13;;;17.40;59.20;;;;;;5062317;28;45450;-73
2022/12/27 09:11:15;;;;;;;2.90;0.88;;;17.40;59.30;;;;;;5062051;28;45505;-73
2022/12/27 09:13:53;;;;;;;4.35;0.80;;;17.40;59.30;;;;;;5059171;28;45593;-73
2022/12/27 09:16:23;;;;;;;2.80;0.77;;;17.30;59.20;;;;;;5060734;28;45210;-72
2022/12/27 09:18:52;;;;;;;2.00;0.75;;;17.40;59.20;;;;;;5063805;28;46516;-72
2022/12/27 09:21:20;;;;;;;2.15;0.82;;;17.40;59.10;;;;;;5063958;28;45457;-72
2022/12/27 09:23:49;;;;;;;2.60;0.90;;;17.40;59.10;;;;;;5063215;28;45535;-72
2022/12/27 09:26:17;;;;;;;5.97;0.80;;;17.50;59.20;;;;;;5062785;28;45269;-73
2022/12/27 09:28:45;;;;;;;2.05;1.20;;;17.50;59.30;;;;;;5063587;28;46759;-72
2022/12/27 09:31:13;;;;;;;1.85;0.80;;;17.50;59.20;;;;;;5063871;28;45348;-73
2022/12/27 09:33:40;;;;;;;4.88;0.70;;;17.50;59.30;;;;;;5063408;28;45288;-72
2022/12/27 09:36:10;;;;;;;3.03;0.70;;;17.50;59.20;;;;;;5062546;28;45301;-73
2022/12/27 09:38:37;;;;;;;5.38;1.02;;;17.50;59.20;;;;;;5043134;28;48082;-73
2022/12/27 09:41:15;;;;;;;3.13;0.82;;;17.60;59.40;;;;;;5043489;28;45439;-73
2022/12/27 09:43:47;;;;;;;1.13;0.52;;;17.60;59.40;;;;;;5040484;28;45242;-73
2022/12/27 09:46:17;;;;;;;1.48;0.75;;;17.60;59.30;;;;;;5043734;28;45196;-73
2022/12/27 09:48:45;;;;;;;2.03;0.80;;;17.60;59.30;;;;;;5043611;28;46270;-73
2022/12/27 09:51:18;;;;;;;2.78;0.70;;;17.60;59.40;;;;;;5043430;28;45223;-72
2022/12/27 09:53:51;;;;;;;1.05;0.65;;;17.60;59.40;;;;;;5043597;28;45422;-73
2022/12/27 09:56:25;;;;;;;2.22;0.80;;;17.60;59.50;;;;;;5043688;28;45427;-73
2022/12/27 09:58:54;;;;;;;3.35;0.80;;;17.60;59.60;;;;;;5043860;28;45386;-73
2022/12/27 10:01:26;;;;;;;1.63;0.60;;;17.60;59.50;;;;;;5043462;28;45418;-73
2022/12/27 10:03:53;;;;;;;1.27;0.68;;;17.60;59.40;;;;;;5040558;28;45431;-73
2022/12/27 10:06:38;;;;;;;2.33;0.63;;;17.60;59.20;;;;;;5043926;28;45251;-73
2022/12/27 10:09:20;;;;;;;0.73;0.40;;;17.60;59.40;;;;;;5043281;28;46328;-73
2022/12/27 10:11:56;;;;;;;1.55;0.60;;;17.60;59.40;;;;;;5043486;28;45401;-73
2022/12/27 10:14:40;;;;;;;3.08;0.73;;;17.60;59.30;;;;;;5043336;28;45294;-72
2022/12/27 10:17:12;;;;;;;1.60;0.68;;;17.60;59.40;;;;;;5045818;28;45189;-72
2022/12/27 10:19:50;;;;;;;0.70;0.50;;;17.60;59.30;;;;;;5046748;28;46253;-73
2022/12/27 10:22:23;;;;;;;2.70;0.80;;;17.60;59.20;;;;;;5046198;28;45312;-73
2022/12/27 10:24:54;;;;;;;1.20;0.50;;;17.60;59.10;;;;;;5045112;28;45382;-73
2022/12/27 10:27:25;;;;;;;1.02;0.50;;;17.70;58.90;;;;;;5045533;28;45608;-72
2022/12/27 10:29:53;;;;;;;1.73;0.65;;;17.70;58.90;;;;;;5045994;28;46059;-72
2022/12/27 10:32:20;;;;;;;1.65;0.70;;;17.70;59.60;;;;;;5044673;28;45327;-71
2022/12/27 10:34:51;;;;;;;2.55;0.80;;;17.60;59.70;;;;;;5045989;28;45404;-72
2022/12/27 10:37:18;;;;;;;0.93;0.45;;;17.60;60.00;;;;;;5045645;28;45329;-72
2022/12/27 10:39:44;;;;;;;1.90;0.40;;;17.60;59.90;;;;;;5046464;28;47622;-72
2022/12/27 10:42:30;;;;;;;1.17;0.50;;;17.60;60.30;;;;;;5045918;28;45401;-72
2022/12/27 10:45:38;;;;;;;1.25;0.47;;;17.50;60.30;;;;;;5055101;28;45339;-72
2022/12/27 10:48:15;;;;;;;1.55;0.55;;;17.50;60.50;;;;;;5051925;28;45848;-72
2022/12/27 10:50:46;;;;;;;1.52;0.60;;;17.50;60.50;;;;;;5066266;28;47823;-72
2022/12/27 10:53:32;;;;;;;1.73;0.70;;;17.50;60.50;;;;;;5066057;28;45744;-72
2022/12/27 10:56:14;;;;;;;1.65;0.73;;;17.50;60.50;;;;;;5059716;28;45180;-72
2022/12/27 10:58:45;;;;;;;1.73;0.65;;;17.50;60.60;;;;;;5066672;28;45273;-72
2022/12/27 11:01:27;;;;;;;1.85;0.47;;;17.50;60.60;;;;;;5066143;28;45455;-72
2022/12/27 11:04:13;;;;;;;0.95;0.50;;;17.60;60.60;;;;;;5066258;28;45685;-72
2022/12/27 11:06:41;;;;;;;2.17;0.50;;;17.60;60.70;;;;;;5066380;28;45334;-71
2022/12/27 11:09:30;;;;;;;1.75;0.60;;;17.60;60.60;;;;;;5066114;28;45456;-72
2022/12/27 11:12:17;;;;;;;2.17;0.65;;;17.60;60.50;;;;;;5065928;28;46568;-72
2022/12/27 11:14:57;;;;;;;2.30;0.65;;;17.60;60.60;;;;;;5062566;28;45697;-72
2022/12/27 11:17:27;;;;;;;2.58;0.65;;;17.60;60.50;;;;;;5046327;28;45270;-72
2022/12/27 11:19:55;;;;;;;0.90;0.50;;;17.70;60.50;;;;;;5046251;28;45413;-72
2022/12/27 11:22:22;;;;;;;1.67;0.40;;;17.70;60.50;;;;;;5044922;28;48275;-71
2022/12/27 11:24:51;;;;;;;0.57;0.40;;;17.70;60.50;;;;;;5045756;28;45318;-72
2022/12/27 11:27:24;;;;;;;0.55;0.40;;;17.70;60.50;;;;;;5044408;28;45408;-72
2022/12/27 11:29:51;;;;;;;1.50;0.60;;;17.70;60.50;;;;;;5044956;28;45424;-72
2022/12/27 11:32:22;;;;;;;1.08;0.40;;;17.70;60.50;;;;;;5044809;28;46627;-71
2022/12/27 11:34:50;;;;;;;2.08;0.80;;;17.70;60.50;;;;;;5045227;28;45314;-72
2022/12/27 11:37:20;;;;;;;0.70;0.43;;;17.70;60.50;;;;;;5064800;28;45438;-72
2022/12/27 11:39:50;;;;;;;1.45;0.55;;;17.70;60.60;;;;;;5065624;28;45387;-72
2022/12/27 11:42:24;;;;;;;1.17;0.55;;;17.70;60.60;;;;;;5064909;28;45288;-72
2022/12/27 11:45:03;;;;;;;0.95;0.50;;;17.70;60.60;;;;;;5065896;28;45384;-71
2022/12/27 11:47:37;;;;;;;1.30;0.57;;;17.70;60.80;;;;;;5065702;28;45334;-72
2022/12/27 11:50:24;;;;;;;0.60;0.32;;;17.70;60.70;;;;;;5066069;28;45410;-71
2022/12/27 11:53:08;;;;;;;1.55;0.50;;;17.70;60.80;;;;;;5064960;28;45590;-72
2022/12/27 11:56:08;;;;;;;1.80;0.55;;;17.70;60.70;;;;;;5065200;28;45641;-71
2022/12/27 11:59:15;;;;;;;0.93;0.32;;;17.70;60.50;;;;;;5065747;28;45339;-71
2022/12/27 12:02:13;;;;;;;1.88;0.47;;;17.70;60.50;;;;;;5065679;28;45340;-71
2022/12/27 12:05:04;;;;;;;3.42;0.50;;;17.70;60.40;;;;;;5049387;28;46320;-71
2022/12/27 12:07:49;;;;;;;1.15;0.50;;;17.70;60.40;;;;;;5043005;28;45478;-71
2022/12/27 12:10:29;;;;;;;0.75;0.50;;;17.70;60.50;;;;;;5053114;28;45255;-72
2022/12/27 12:13:20;;;;;;;1.10;0.40;;;17.70;60.40;;;;;;5043786;28;45788;-72
2022/12/27 12:16:34;;;;;;;1.27;0.60;;;17.70;60.50;;;;;;5043136;28;46799;-72
2022/12/27 12:19:20;;;;;;;1.27;0.47;;;17.70;61.50;;;;;;5020829;28;45417;-71
2022/12/27 12:22:04;;;;;;;3.10;0.60;;;17.70;60.50;;;;;;5049590;28;45464;-72
2022/12/27 12:24:55;;;;;;;1.73;0.60;;;17.70;60.50;;;;;;5051751;28;45536;-72
2022/12/27 12:27:47;;;;;;;3.20;0.70;;;17.60;60.40;;;;;;5054411;28;46266;-72
2022/12/27 12:30:37;;;;;;;1.15;0.70;;;17.50;60.30;;;;;;5048076;28;45276;-71
2022/12/27 12:33:33;;;;;;;2.22;0.75;;;17.50;60.30;;;;;;5069632;28;45374;-72
2022/12/27 12:36:28;;;;;;;0.80;0.47;;;17.60;60.40;;;;;;5057725;28;45554;-72
2022/12/27 12:39:02;;;;;;;1.52;0.40;;;17.60;60.40;;;;;;5054230;28;48059;-72
2022/12/27 12:42:05;;;;;;;1.40;0.40;;;17.60;60.50;;;;;;5051776;28;45456;-72
2022/12/27 12:45:15;;;;;;;3.03;0.40;;;17.60;60.50;;;;;;5067226;28;45218;-72
2022/12/27 12:48:04;;;;;;;2.85;0.68;;;17.60;60.60;;;;;;5067824;28;45454;-71
2022/12/27 12:50:45;;;;;;;1.05;0.50;;;17.70;60.50;;;;;;5064658;28;47304;-72
2022/12/27 12:53:36;;;;;;;4.40;0.90;;;17.70;60.40;;;;;;5070970;28;45808;-72
2022/12/27 12:56:28;;;;;;;1.05;0.40;;;17.70;60.10;;;;;;5066280;27;45352;-72
2022/12/27 12:59:08;;;;;;;1.15;0.50;;;17.60;60.40;;;;;;5065849;28;45240;-72
2022/12/27 13:01:51;;;;;;;2.92;0.80;;;17.60;60.40;;;;;;5055640;28;46431;-73
2022/12/27 13:04:37;;;;;;;1.00;0.50;;;17.60;60.30;;;;;;5062197;28;45442;-72
2022/12/27 13:07:22;;;;;;;1.38;0.50;;;17.60;60.40;;;;;;5063005;28;45462;-74
2022/12/27 13:10:07;;;;;;;2.47;0.55;;;17.60;60.40;;;;;;5066356;27;45320;-72
2022/12/27 13:12:42;;;;;;;2.30;0.60;;;17.60;60.50;;;;;;5062342;28;46361;-73
2022/12/27 13:15:25;;;;;;;2.70;0.73;;;17.70;60.60;;;;;;5071661;28;45521;-73
2022/12/27 13:18:04;;;;;;;1.52;0.60;;;17.60;60.70;;;;;;5061578;28;45426;-71
2022/12/27 13:21:00;;;;;;;4.57;0.80;;;17.60;60.90;;;;;;5057468;28;45543;-70
2022/12/27 13:23:40;;;;;;;5.32;1.65;;;17.60;62.60;;;;;;5062014;28;45732;-72
2022/12/27 13:26:17;;;;;;;9.25;1.25;;;17.60;65.70;;;;;;5064529;28;45198;-73
2022/12/27 13:28:58;;;;;;;6.82;1.10;;;17.60;66.90;;;;;;5065148;28;45192;-73
2022/12/27 13:31:37;;;;;;;4.97;0.80;;;17.50;66.00;;;;;;5060044;28;45374;-73
2022/12/27 13:34:20;;;;;;;3.28;0.70;;;17.40;65.70;;;;;;5060691;28;45482;-73
2022/12/27 13:37:05;;;;;;;2.25;0.70;;;17.40;66.10;;;;;;5060690;28;45612;-72
2022/12/27 13:39:43;;;;;;;6.22;0.73;;;17.30;66.60;;;;;;5058178;28;45422;-73
2022/12/27 13:42:57;;;;;;;3.05;0.82;;;17.30;66.90;;;;;;5059129;28;45424;-73
2022/12/27 13:45:45;;;;;;;2.60;0.50;;;17.30;67.20;;;;;;5033278;27;45392;-72
2022/12/27 13:48:38;;;;;;;2.28;0.85;;;17.30;67.50;;;;;;5044381;28;45407;-72
2022/12/27 13:51:23;;;;;;;2.97;0.88;;;17.30;67.90;;;;;;5042853;28;45349;-72
2022/12/27 13:54:25;;;;;;;2.15;0.90;;;17.20;68.20;;;;;;5046508;28;45612;-73
2022/12/27 13:57:04;;;;;;;3.85;0.73;;;17.20;69.40;;;;;;5043415;28;45389;-73
2022/12/27 13:59:50;;;;;;;1.42;0.60;;;17.20;68.90;;;;;;5046223;28;45242;-72
2022/12/27 14:02:52;;;;;;;2.55;0.73;;;17.20;69.30;;;;;;5045729;28;45369;-72
2022/12/27 14:05:45;;;;;;;2.50;0.80;;;17.20;69.60;;;;;;5043917;28;45190;-72
2022/12/27 14:08:20;;;;;;;3.10;0.65;;;17.20;69.80;;;;;;5041841;28;46606;-72
2022/12/27 14:10:49;;;;;;;1.08;0.40;;;17.20;70.10;;;;;;5045632;28;45459;-72
2022/12/27 14:13:21;;;;;;;1.52;0.70;;;17.20;70.30;;;;;;5045393;28;45428;-72
2022/12/27 14:16:07;;;;;;;2.80;0.50;;;17.20;70.40;;;;;;5045356;28;45431;-72
2022/12/27 14:18:50;;;;;;;3.72;0.60;;;17.20;70.50;;;;;;5064641;28;45509;-72
2022/12/27 14:21:41;;;;;;;1.88;0.60;;;17.10;70.50;;;;;;5065394;28;46253;-72
2022/12/27 14:24:22;;;;;;;1.23;0.40;;;17.10;70.10;;;;;;5065252;28;45375;-72
2022/12/27 14:27:41;;;;;;;1.67;0.60;;;17.20;70.80;;;;;;5065125;28;45271;-73
2022/12/27 14:30:31;;;;;;;2.53;0.52;;;17.10;70.70;;;;;;5065205;28;46324;-72
2022/12/27 14:33:33;;;;;;;2.17;0.68;;;17.20;71.00;;;;;;5065518;28;45597;-72
2022/12/27 14:36:19;;;;;;;1.65;0.70;;;17.20;71.10;;;;;;5065502;28;45360;-72
2022/12/27 14:39:17;;;;;;;1.63;0.63;;;17.20;71.20;;;;;;5065364;28;45398;-72
2022/12/27 14:42:23;;;;;;;1.88;0.70;;;17.20;71.20;;;;;;5065475;28;45511;-72
2022/12/27 14:45:20;;;;;;;4.97;0.60;;;17.20;71.60;;;;;;5045073;28;45246;-72
2022/12/27 14:48:16;;;;;;;1.67;0.70;;;17.20;71.60;;;;;;5054327;28;45334;-72
2022/12/27 14:51:31;;;;;;;1.02;0.50;;;17.20;71.60;;;;;;5065524;28;45450;-72
2022/12/27 14:54:26;;;;;;;4.10;0.68;;;17.20;71.50;;;;;;5002386;28;47197;-72
2022/12/27 14:57:03;;;;;;;5.30;1.10;;;17.20;71.60;;;;;;4970711;28;45608;-72
2022/12/27 14:59:41;;;;;;;2.08;0.90;;;17.20;71.80;;;;;;5040782;28;45314;-73
2022/12/27 15:02:28;;;;;;;1.30;0.55;;;17.10;71.50;;;;;;5044978;28;45376;-72
2022/12/27 15:05:30;;;;;;;2.13;0.73;;;17.20;71.60;;;;;;5044601;28;48347;-73
2022/12/27 15:08:13;;;;;;;1.70;0.80;;;17.10;71.20;;;;;;5041298;28;45372;-71
2022/12/27 15:10:53;;;;;;;3.10;0.88;;;17.10;71.40;;;;;;5044785;28;45381;-72
2022/12/27 15:13:30;;;;;;;0.90;0.52;;;17.10;71.40;;;;;;5044574;28;45248;-71